Main page
Satellite images 10-day forecastsClimateMarine weather Cyclones Lightning AirportsFAQ Newsletter About
Weather : Europe Africa North America South America Asia Australia-Oceania Others
Languages Contact

Bauru, São Paulo, Brazil

Bauru Airport

latitude: 22-19S, longitude: 049-04W, elevation: 590 m


METAR: SBBU 051200Z 10018KT 9999 SCT040 OVC070 14/10 Q1021
TAF: SBBU 051030Z 0512/0524 13012KT CAVOK TN16/0512Z TX18/0517Z RMK PEL

Time: 09:50 (12:50 UTC)

Current weather observation

The report was made 50 minutes ago, at 12:00 UTC
Wind 18 kt from the East
Temperature 14°C
Humidity 77%
Pressure 1021 hPa
Visibility 10 km or more
Scattered clouds at a height of 4000 ft
Overcast at a height of 7000 ft

Change units

Forecast

The report was made 2 hours and 20 minutes ago, at 10:30 UTC
Forecast valid from 05 at 12 UTC to 05 at 24 UTC
Wind 12 kt from the Southeast
Visibility 10 km or more
no clouds below 1500 m and no cumulonimbus
The information on this site is subject to a disclaimer
Weather : Europe Africa North America South America Asia Australia-Oceania Others
Satellite images 10-day forecastsClimateMarine weather Cyclones Lightning AirportsFAQ Languages Contact Newsletter About